Time;durP1;ratioP1;P1;durP2;ratioP2;P2;SDS_P1;SDS_P2;PMS_P1;PMS_P2;Temp;Humidity;BMP_temperature;BMP_pressure;BME280_temperature;BME280_humidity;BME280_pressure;Samples;Min_cycle;Max_cycle;Signal;HPM_P1;HPM_P2
2023/01/10 06:49:00;;;;;;;;;1.00;0.75;;;;;17.67;48.83;101829.00;5067752;27;45572;-67
2023/01/10 06:51:25;;;;;;;;;2.00;2.00;;;;;17.97;49.43;101832.41;5067358;28;45422;-67
2023/01/10 06:53:50;;;;;;;;;1.00;1.00;;;;;18.43;49.59;101828.38;5058842;27;45798;-67
2023/01/10 06:56:16;;;;;;;;;3.25;1.00;;;;;18.95;49.50;101820.25;5052574;27;45713;-67
2023/01/10 06:58:41;;;;;;;;;3.00;0.50;;;;;19.55;50.01;101823.06;5064656;27;46020;-67
2023/01/10 07:01:12;;;;;;;;;0.00;0.00;;;;;20.13;49.33;101814.22;5056755;28;45414;-68
2023/01/10 07:03:39;;;;;;;;;0.00;0.00;;;;;20.65;48.98;101808.34;5054532;28;45530;-68
2023/01/10 07:06:08;;;;;;;;;1.00;1.00;;;;;21.19;48.56;101819.38;5058629;28;45447;-68
2023/01/10 07:08:38;;;;;;;;;1.33;1.33;;;;;21.66;48.08;101815.50;5057878;27;45813;-70
2023/01/10 07:11:04;;;;;;;;;1.00;1.00;;;;;22.10;47.12;101826.22;5066032;28;45589;-68
2023/01/10 07:13:29;;;;;;;;;2.00;2.00;;;;;22.48;46.45;101820.31;5067315;27;45395;-68
2023/01/10 07:16:12;;;;;;;;;2.33;2.33;;;;;22.80;46.34;101822.00;5066716;28;45430;-69
2023/01/10 07:18:40;;;;;;;;;3.33;2.33;;;;;23.02;45.83;101812.81;5072528;27;46088;-69
2023/01/10 07:21:06;;;;;;;;;4.33;1.00;;;;;23.23;45.32;101808.28;5060250;28;45743;-69
2023/01/10 07:23:31;;;;;;;;;1.00;1.00;;;;;23.40;45.18;101813.03;5068845;28;45413;-69
2023/01/10 07:26:00;;;;;;;;;1.00;1.00;;;;;23.60;44.74;101813.03;5063536;28;45485;-69
2023/01/10 07:28:26;;;;;;;;;1.00;1.00;;;;;23.74;44.19;101811.75;5051199;28;46766;-70
2023/01/10 07:30:51;;;;;;;;;3.00;1.00;;;;;23.89;44.10;101804.03;5056109;28;49949;-69
2023/01/10 07:33:16;;;;;;;;;3.00;1.67;;;;;24.05;43.76;101813.41;5054965;27;45988;-70
2023/01/10 07:35:42;;;;;;;;;2.67;2.00;;;;;24.16;43.49;101809.72;5056037;28;45347;-70
2023/01/10 07:38:08;;;;;;;;;2.00;2.00;;;;;24.24;43.14;101807.13;5057034;28;46121;-71
2023/01/10 07:40:33;;;;;;;;;3.00;1.67;;;;;24.37;43.04;101804.06;5060641;28;45556;-70
2023/01/10 07:43:00;;;;;;;;;3.00;1.00;;;;;24.52;42.87;101811.72;5058010;28;46227;-69
2023/01/10 07:45:26;;;;;;;;;1.00;1.00;;;;;24.64;42.49;101804.25;5069134;27;45425;-68
2023/01/10 07:47:58;;;;;;;;;2.00;1.00;;;;;24.76;42.34;101805.75;5059049;28;48009;-68
2023/01/10 07:50:25;;;;;;;;;1.00;1.00;;;;;24.86;42.38;101795.69;5066105;28;45579;-68
2023/01/10 07:52:51;;;;;;;;;1.00;1.00;;;;;25.00;42.06;101809.78;5063161;28;45387;-67
2023/01/10 07:55:16;;;;;;;;;2.67;1.00;;;;;25.13;42.03;101803.97;5057915;28;45445;-67
2023/01/10 07:57:42;;;;;;;;;1.00;1.00;;;;;25.25;41.66;101808.19;5058944;27;46473;-68
2023/01/10 08:00:08;;;;;;;;;1.33;0.33;;;;;25.36;41.53;101801.66;5046569;27;45537;-71
2023/01/10 08:02:33;;;;;;;;;1.00;1.00;;;;;25.44;41.30;101802.75;5044037;28;46953;-70
2023/01/10 08:04:59;;;;;;;;;2.00;1.00;;;;;25.51;41.02;101806.56;5039721;28;45494;-71
2023/01/10 08:07:24;;;;;;;;;3.00;1.67;;;;;25.59;41.10;101797.66;5052215;28;46779;-71
2023/01/10 08:09:49;;;;;;;;;1.00;1.00;;;;;25.64;41.04;101795.31;5047202;28;45610;-70
2023/01/10 08:12:15;;;;;;;;;1.33;1.33;;;;;25.72;40.69;101803.53;5055534;28;45389;-71
2023/01/10 08:14:40;;;;;;;;;2.00;1.00;;;;;25.77;40.55;101801.19;5049946;28;45531;-71
2023/01/10 08:17:05;;;;;;;;;2.00;2.00;;;;;25.79;40.47;101796.44;5048444;28;47012;-71
2023/01/10 08:19:31;;;;;;;;;1.00;1.00;;;;;25.84;40.47;101801.41;5050314;28;45375;-71
2023/01/10 08:21:56;;;;;;;;;3.00;1.33;;;;;25.85;39.92;101808.56;5048418;28;45548;-71
2023/01/10 08:24:21;;;;;;;;;1.00;1.00;;;;;25.86;40.33;101812.13;5049891;28;45498;-71
2023/01/10 08:26:47;;;;;;;;;2.00;2.00;;;;;25.86;40.00;101818.41;5040442;28;45483;-71
2023/01/10 08:29:12;;;;;;;;;3.00;3.00;;;;;25.86;39.89;101812.97;5041619;28;45523;-71
2023/01/10 08:31:40;;;;;;;;;3.67;3.67;;;;;25.80;39.39;101813.63;5046876;28;45572;-72
2023/01/10 08:34:05;;;;;;;;;3.67;3.67;;;;;25.83;40.03;101818.72;5043392;28;45472;-71
2023/01/10 08:36:30;;;;;;;;;6.00;4.33;;;;;25.86;39.64;101818.41;5040480;28;52487;-73
2023/01/10 08:38:56;;;;;;;;;6.67;5.67;;;;;25.86;39.57;101821.13;5042460;28;51357;-74
2023/01/10 08:41:21;;;;;;;;;4.00;3.00;;;;;25.82;39.58;101805.31;5052131;28;45534;-71
2023/01/10 08:43:50;;;;;;;;;6.00;6.00;;;;;25.84;39.23;101803.28;5054000;28;45844;-72
2023/01/10 08:46:16;;;;;;;;;4.00;4.00;;;;;25.83;39.24;101804.28;5041205;28;45576;-71
2023/01/10 08:48:41;;;;;;;;;5.00;5.00;;;;;25.83;39.20;101794.25;5047458;28;45511;-74
2023/01/10 08:51:08;;;;;;;;;11.67;11.00;;;;;25.88;39.29;101805.50;5043817;28;45522;-72
2023/01/10 08:53:33;;;;;;;;;9.00;8.00;;;;;25.87;38.74;101801.09;5039049;28;45617;-72
2023/01/10 08:55:59;;;;;;;;;8.67;7.67;;;;;25.88;38.85;101802.78;5038958;28;53670;-72
2023/01/10 08:58:24;;;;;;;;;6.00;6.00;;;;;25.88;38.86;101799.22;5054006;28;45511;-72
2023/01/10 09:00:50;;;;;;;;;20.67;16.33;;;;;25.87;38.29;101808.41;5047803;28;47392;-74
2023/01/10 09:03:15;;;;;;;;;18.67;16.67;;;;;25.83;38.85;101802.41;5040977;28;45514;-72
2023/01/10 09:05:41;;;;;;;;;22.00;18.33;;;;;25.78;38.88;101800.19;5049247;28;47268;-73
2023/01/10 09:08:06;;;;;;;;;23.33;18.33;;;;;25.77;38.64;101797.63;5035653;28;45467;-72
2023/01/10 09:10:31;;;;;;;;;16.00;15.67;;;;;25.78;38.84;101800.19;5052212;28;45460;-72
2023/01/10 09:13:00;;;;;;;;;19.33;15.00;;;;;25.78;38.65;101794.75;5043141;28;45503;-72
2023/01/10 09:15:31;;;;;;;;;20.33;19.33;;;;;25.77;38.56;101794.88;5040938;28;45617;-72
2023/01/10 09:17:59;;;;;;;;;21.33;15.00;;;;;25.77;38.45;101789.44;5039352;28;45544;-72
2023/01/10 09:20:26;;;;;;;;;20.00;15.00;;;;;25.75;38.40;101789.59;5041507;28;45812;-72
2023/01/10 09:22:52;;;;;;;;;23.33;21.33;;;;;25.74;38.47;101785.19;5039298;28;46116;-73
2023/01/10 09:25:17;;;;;;;;;19.33;18.67;;;;;25.69;38.43;101787.53;5047299;28;45894;-69
2023/01/10 09:27:43;;;;;;;;;24.25;24.25;;;;;25.68;38.40;101788.56;5046621;28;45463;-71
2023/01/10 09:30:09;;;;;;;;;30.25;28.00;;;;;25.64;38.00;101784.44;5045004;28;45532;-72
2023/01/10 09:32:34;;;;;;;;;34.00;26.75;;;;;25.65;38.16;101781.56;5038714;28;45781;-70
2023/01/10 09:34:59;;;;;;;;;26.00;23.50;;;;;25.65;38.62;101780.69;5049358;28;45610;-69
2023/01/10 09:37:24;;;;;;;;;25.25;24.25;;;;;25.61;38.55;101771.16;5040226;28;53203;-69
2023/01/10 09:39:51;;;;;;;;;23.00;21.67;;;;;25.65;38.50;101772.53;5035240;28;45504;-70
2023/01/10 09:42:49;;;;;;;;;25.75;24.25;;;;;25.68;38.51;101776.81;5044406;28;45608;-70
2023/01/10 09:45:25;;;;;;;;;31.67;25.67;;;;;25.71;38.55;101779.22;5041265;28;45590;-68
2023/01/10 09:47:54;;;;;;;;;20.00;18.67;;;;;25.71;38.54;101781.94;5049593;28;45766;-68
2023/01/10 09:50:54;;;;;;;;;27.00;23.75;;;;;25.70;38.56;101769.38;5050774;28;45557;-69
2023/01/10 09:53:26;;;;;;;;;24.67;23.33;;;;;25.72;38.42;101768.19;5045247;28;45742;-71
2023/01/10 09:55:55;;;;;;;;;20.00;19.33;;;;;25.72;38.40;101757.31;5043986;28;46448;-69
2023/01/10 09:58:26;;;;;;;;;27.00;23.33;;;;;25.76;38.16;101766.84;5039893;28;45566;-70
2023/01/10 10:00:54;;;;;;;;;20.33;19.00;;;;;25.78;38.63;101769.41;5049468;28;47230;-71
2023/01/10 10:03:34;;;;;;;;;25.00;21.33;;;;;25.77;38.86;101774.00;5040329;28;45526;-70
2023/01/10 10:05:59;;;;;;;;;21.33;20.33;;;;;25.77;38.50;101765.84;5057447;28;47475;-72
2023/01/10 10:08:25;;;;;;;;;30.67;27.00;;;;;25.79;38.86;101765.69;5049635;28;45379;-71
2023/01/10 10:11:06;;;;;;;;;28.00;24.75;;;;;25.82;38.30;101767.25;5041037;28;45323;-71
2023/01/10 10:13:56;;;;;;;;;33.25;28.00;;;;;25.80;38.46;101761.97;5047496;28;45710;-71
2023/01/10 10:17:01;;;;;;;;;28.25;25.00;;;;;25.80;38.75;101764.69;5049371;28;46397;-72
2023/01/10 10:19:50;;;;;;;;;44.75;35.25;;;;;25.77;38.66;101764.97;5048862;28;45452;-71
2023/01/10 10:22:50;;;;;;;;;50.00;39.50;;;;;25.72;38.27;101760.03;5046980;28;46298;-71
2023/01/10 10:25:24;;;;;;;;;54.50;38.00;;;;;25.67;38.71;101770.53;5042334;28;45529;-69
2023/01/10 10:27:52;;;;;;;;;54.25;43.25;;;;;25.63;38.18;101763.69;5043410;28;46124;-69
2023/01/10 10:30:17;;;;;;;;;53.25;41.25;;;;;25.59;38.45;101760.44;5047999;28;45672;-69
2023/01/10 10:32:56;;;;;;;;;48.50;40.50;;;;;25.55;38.50;101750.00;5047184;28;45756;-69
2023/01/10 10:35:31;;;;;;;;;47.00;38.50;;;;;25.56;38.06;101747.16;5050688;28;45525;-68
2023/01/10 10:38:04;;;;;;;;;53.50;39.75;;;;;25.51;38.49;101734.00;5042883;28;45435;-68
2023/01/10 10:40:36;;;;;;;;;46.00;38.25;;;;;25.49;38.10;101724.31;5041702;28;45692;-68
2023/01/10 10:43:14;;;;;;;;;51.00;39.25;;;;;25.51;38.07;101723.13;5043361;28;45511;-69
2023/01/10 10:45:57;;;;;;;;;64.00;49.75;;;;;25.51;37.94;101716.88;5044869;28;45722;-68
2023/01/10 10:48:57;;;;;;;;;76.50;60.00;;;;;25.49;38.18;101718.88;5048985;28;45849;-68
2023/01/10 10:51:33;;;;;;;;;71.00;52.75;;;;;25.46;37.95;101716.50;5050245;28;45714;-68
2023/01/10 10:53:58;;;;;;;;;68.75;51.25;;;;;25.45;37.85;101709.31;5044894;28;45652;-67
2023/01/10 10:56:25;;;;;;;;;70.50;53.50;;;;;25.39;38.00;101699.97;5054466;28;45659;-69
2023/01/10 10:58:54;;;;;;;;;70.50;54.25;;;;;25.40;38.15;101701.66;5040158;28;46110;-69
2023/01/10 11:01:21;;;;;;;;;71.75;52.25;;;;;25.37;38.20;101697.41;5048307;28;45469;-68
2023/01/10 11:04:08;;;;;;;;;65.75;52.25;;;;;25.41;37.82;101699.81;5042805;28;45497;-66
2023/01/10 11:06:35;;;;;;;;;68.00;53.25;;;;;25.38;37.96;101692.81;5048294;28;45545;-67
2023/01/10 11:09:05;;;;;;;;;68.75;51.50;;;;;25.36;38.13;101687.53;5049499;28;45508;-67
2023/01/10 11:11:34;;;;;;;;;68.75;53.25;;;;;25.39;38.04;101691.81;5054247;28;45578;-66
2023/01/10 11:14:06;;;;;;;;;73.00;54.25;;;;;25.38;38.07;101681.97;5047661;28;45394;-66
2023/01/10 11:16:38;;;;;;;;;70.25;53.75;;;;;25.37;37.98;101678.38;5051365;28;45587;-66
2023/01/10 11:19:24;;;;;;;;;67.00;52.25;;;;;25.38;38.02;101680.06;5046688;28;47152;-67
2023/01/10 11:21:58;;;;;;;;;69.75;53.25;;;;;25.40;38.06;101669.03;5050485;28;45377;-66
2023/01/10 11:24:35;;;;;;;;;64.75;52.50;;;;;25.42;38.08;101663.47;5047790;28;45450;-66
2023/01/10 11:27:12;;;;;;;;;65.50;51.00;;;;;25.36;38.34;101645.91;5049551;28;45492;-66
2023/01/10 11:29:44;;;;;;;;;62.00;49.25;;;;;25.42;37.94;101644.44;5050477;28;45533;-67
2023/01/10 11:32:16;;;;;;;;;68.00;52.50;;;;;25.39;37.76;101651.88;5043153;27;45438;-67
2023/01/10 11:34:52;;;;;;;;;69.75;52.00;;;;;25.36;38.02;101640.47;5045696;28;45594;-68
2023/01/10 11:37:18;;;;;;;;;66.50;50.50;;;;;25.36;37.86;101643.19;5048353;28;46092;-67
2023/01/10 11:39:43;;;;;;;;;63.75;50.50;;;;;25.33;37.90;101632.63;5060077;28;47523;-68
2023/01/10 11:42:38;;;;;;;;;66.00;48.00;;;;;25.34;38.10;101620.78;5060771;28;45364;-68
2023/01/10 11:45:34;;;;;;;;;59.25;45.50;;;;;25.34;38.24;101618.06;5035553;28;45547;-68
2023/01/10 11:48:21;;;;;;;;;64.00;49.50;;;;;25.38;37.73;101600.44;5050367;28;45713;-68
2023/01/10 11:50:50;;;;;;;;;61.50;49.75;;;;;25.43;38.14;101594.50;5043784;28;46296;-68
2023/01/10 11:53:36;;;;;;;;;63.00;47.75;;;;;25.44;37.85;101597.06;5055884;28;45780;-68
2023/01/10 11:56:03;;;;;;;;;62.25;48.50;;;;;25.46;37.76;101591.47;5048583;28;45456;-68
2023/01/10 11:58:32;;;;;;;;;62.75;48.00;;;;;25.49;38.25;101591.13;5053653;28;45329;-68
2023/01/10 12:00:57;;;;;;;;;61.25;47.75;;;;;25.48;38.33;101587.59;5051118;28;45905;-71
2023/01/10 12:03:28;;;;;;;;;64.75;47.50;;;;;25.49;38.00;101572.09;5049955;28;46231;-70
2023/01/10 12:05:59;;;;;;;;;61.25;48.50;;;;;25.44;38.06;101558.16;5038455;28;45457;-68
2023/01/10 12:08:30;;;;;;;;;55.50;44.00;;;;;25.47;38.00;101560.56;5038487;28;45519;-68
2023/01/10 12:11:31;;;;;;;;;59.50;47.50;;;;;25.50;38.29;101565.69;5045042;28;45459;-68
2023/01/10 12:13:58;;;;;;;;;55.25;45.50;;;;;25.47;37.93;101539.66;5054397;28;45422;-68
2023/01/10 12:16:32;;;;;;;;;58.50;46.00;;;;;25.49;37.99;101556.66;5055910;28;45455;-71
2023/01/10 12:19:01;;;;;;;;;59.00;46.00;;;;;25.51;38.16;101551.06;5056856;28;45424;-70
2023/01/10 12:21:38;;;;;;;;;51.75;42.00;;;;;25.51;38.22;101537.47;5050533;28;46045;-70
2023/01/10 12:24:14;;;;;;;;;63.50;44.75;;;;;25.51;38.10;101532.88;5051956;28;45404;-69
2023/01/10 12:26:41;;;;;;;;;55.50;44.50;;;;;25.52;38.17;101521.03;5041793;28;45430;-69
2023/01/10 12:29:14;;;;;;;;;52.50;44.00;;;;;25.54;38.50;101520.81;5048232;28;45399;-70
2023/01/10 12:31:40;;;;;;;;;50.75;42.50;;;;;25.56;37.97;101518.84;5051983;28;45785;-68
2023/01/10 12:34:19;;;;;;;;;52.00;39.50;;;;;25.56;38.11;101513.41;5052833;28;45743;-68
2023/01/10 12:37:03;;;;;;;;;54.75;42.25;;;;;25.58;37.98;101507.81;5050437;28;45471;-69
2023/01/10 12:39:34;;;;;;;;;55.00;44.75;;;;;25.58;38.27;101503.22;5044415;28;45407;-70
2023/01/10 12:44:59;;;;;;;;;54.00;42.50;;;;;25.61;38.12;101492.03;5055492;28;45319;-70
2023/01/10 12:47:46;;;;;;;;;54.00;43.50;;;;;25.64;38.41;101485.41;5047937;28;45652;-69
2023/01/10 12:50:16;;;;;;;;;30.25;26.00;;;;;25.63;37.88;101484.53;5049301;28;45395;-69
2023/01/10 12:52:47;;;;;;;;;28.75;26.00;;;;;25.58;37.41;101481.47;5049736;28;45470;-69
2023/01/10 12:55:15;;;;;;;;;29.75;26.25;;;;;25.52;37.53;101477.53;5046489;28;45465;-69
2023/01/10 12:57:43;;;;;;;;;39.00;30.00;;;;;25.44;36.80;101473.91;5066303;28;45508;-69
2023/01/10 13:00:20;;;;;;;;;42.50;30.25;;;;;25.32;36.69;101471.50;5055176;28;46349;-69
2023/01/10 13:02:49;;;;;;;;;39.25;27.25;;;;;25.25;37.23;101468.59;5049209;28;45890;-69
2023/01/10 13:05:25;;;;;;;;;26.67;22.00;;;;;25.24;37.36;101471.44;5046690;28;46157;-70
2023/01/10 13:07:53;;;;;;;;;38.25;25.00;;;;;25.20;37.24;101479.09;5051547;28;45478;-71
2023/01/10 13:10:22;;;;;;;;;30.00;26.33;;;;;25.16;37.20;101466.84;5050473;28;45498;-71
2023/01/10 13:13:12;;;;;;;;;36.25;25.75;;;;;25.04;37.38;101443.69;5042568;28;45581;-69
2023/01/10 13:15:48;;;;;;;;;30.25;25.00;;;;;25.08;37.25;101455.91;5051351;28;45757;-74
2023/01/10 13:18:28;;;;;;;;;28.75;26.00;;;;;25.05;37.25;101443.50;5040471;28;45577;-69
2023/01/10 13:21:12;;;;;;;;;30.75;24.00;;;;;25.06;37.31;101439.78;5051475;28;45554;-69
2023/01/10 13:23:49;;;;;;;;;30.00;27.25;;;;;25.06;37.26;101445.22;5047960;28;45426;-69
2023/01/10 13:26:15;;;;;;;;;25.67;23.00;;;;;25.04;37.17;101430.97;5052923;28;45727;-69
2023/01/10 13:28:56;;;;;;;;;29.00;25.00;;;;;25.08;37.05;101437.78;5051297;28;45576;-70
2023/01/10 13:31:29;;;;;;;;;30.67;27.67;;;;;25.04;37.54;101416.53;5046033;28;45891;-69
2023/01/10 13:33:59;;;;;;;;;24.67;23.33;;;;;25.12;37.40;101419.28;5050032;28;48520;-69
2023/01/10 13:36:28;;;;;;;;;26.00;17.33;;;;;25.18;37.07;101418.63;5054574;28;45434;-68
2023/01/10 13:39:00;;;;;;;;;26.00;21.33;;;;;25.23;37.80;101419.00;5052208;28;45461;-67
2023/01/10 13:45:00;;;;;;;;;24.00;20.00;;;;;25.38;37.86;101413.78;5039426;28;46021;-67
2023/01/10 13:47:38;;;;;;;;;22.00;17.00;;;;;25.46;37.71;101410.22;5042829;28;45521;-70
2023/01/10 13:50:21;;;;;;;;;21.33;19.33;;;;;25.56;37.54;101412.84;5050143;28;45620;-70
2023/01/10 13:52:48;;;;;;;;;25.00;23.00;;;;;25.63;37.69;101405.72;5053160;28;45459;-68
2023/01/10 13:55:52;;;;;;;;;22.33;18.33;;;;;25.76;37.75;101399.78;5053407;28;46584;-68
2023/01/10 14:04:20;;;;;;;;;46.25;36.00;;;;;26.04;37.80;101383.16;5052205;28;45639;-68
2023/01/10 14:06:52;;;;;;;;;94.67;84.00;;;;;26.08;37.32;101390.97;5039824;28;45758;-70
2023/01/10 14:09:19;;;;;;;;;77.25;63.25;;;;;26.04;36.97;101383.16;5053168;28;45886;-70
2023/01/10 14:11:44;;;;;;;;;78.00;63.00;;;;;26.01;36.86;101385.38;5042406;28;45391;-70
2023/01/10 14:14:24;;;;;;;;;74.25;56.75;;;;;25.96;36.84;101375.00;5049628;28;45485;-70
2023/01/10 14:16:54;;;;;;;;;70.00;53.00;;;;;25.96;37.29;101377.72;5052623;28;46637;-70
2023/01/10 14:19:22;;;;;;;;;74.25;57.00;;;;;25.96;37.21;101374.16;5053662;28;45611;-70
2023/01/10 14:21:54;;;;;;;;;70.75;53.75;;;;;25.95;37.23;101369.75;5059790;28;45464;-69
2023/01/10 14:24:36;;;;;;;;;71.50;56.50;;;;;25.97;37.27;101371.25;5053829;28;45413;-69
2023/01/10 14:27:03;;;;;;;;;67.25;51.50;;;;;26.02;37.35;101371.59;5048102;28;46756;-68
2023/01/10 14:29:32;;;;;;;;;68.75;54.00;;;;;26.05;37.51;101364.97;5039908;28;45563;-68
2023/01/10 14:31:58;;;;;;;;;70.50;55.00;;;;;26.11;37.49;101371.59;5051453;28;45419;-68
2023/01/10 14:34:35;;;;;;;;;68.50;52.75;;;;;26.18;37.61;101367.16;5053549;28;45437;-69
2023/01/10 14:37:42;;;;;;;;;64.25;51.25;;;;;26.26;37.25;101375.34;5040116;28;46002;-68
2023/01/10 14:40:24;;;;;;;;;64.25;49.75;;;;;26.36;37.53;101374.31;5045833;28;45499;-71
2023/01/10 14:42:54;;;;;;;;;53.75;43.75;;;;;26.34;36.89;101368.19;5051484;28;45443;-71
2023/01/10 14:45:35;;;;;;;;;56.25;42.75;;;;;26.38;37.33;101377.72;5050348;28;45668;-71
2023/01/10 14:48:20;;;;;;;;;52.75;42.50;;;;;26.33;36.89;101369.22;5050351;28;46039;-71
2023/01/10 14:50:46;;;;;;;;;42.25;37.25;;;;;26.28;37.26;101365.13;5061876;28;46874;-71
2023/01/10 14:53:26;;;;;;;;;51.00;40.50;;;;;26.30;36.94;101373.13;5063223;28;45400;-70
2023/01/10 14:55:51;;;;;;;;;50.25;42.00;;;;;26.27;37.50;101370.75;5059699;27;45631;-71
2023/01/10 14:58:17;;;;;;;;;45.25;37.50;;;;;26.22;36.90;101367.66;5050065;28;46153;-71
2023/01/10 15:00:45;;;;;;;;;59.75;45.75;;;;;26.17;36.57;101377.19;5050368;28;45452;-70
2023/01/10 15:03:21;;;;;;;;;64.25;51.50;;;;;26.17;36.77;101370.91;5050826;28;45425;-71
2023/01/10 15:05:53;;;;;;;;;75.00;60.25;;;;;26.15;37.00;101368.34;5054900;28;45499;-70
2023/01/10 15:08:27;;;;;;;;;72.25;57.25;;;;;26.14;37.04;101379.41;5042286;28;45477;-71
2023/01/10 15:11:04;;;;;;;;;72.50;55.00;;;;;26.19;37.12;101368.84;5054472;28;45510;-71
2023/01/10 15:13:34;;;;;;;;;72.75;56.50;;;;;26.22;36.69;101375.81;5054076;28;45447;-71
2023/01/10 15:16:00;;;;;;;;;58.75;47.75;;;;;26.18;37.04;101348.97;5054156;28;45831;-70
2023/01/10 15:18:28;;;;;;;;;68.75;53.50;;;;;26.24;36.60;101363.75;5057457;28;45558;-70
2023/01/10 15:20:54;;;;;;;;;79.75;71.25;;;;;26.24;36.96;101347.41;5051347;28;45454;-70
2023/01/10 15:23:20;;;;;;;;;79.25;66.25;;;;;26.27;36.48;101348.97;5062398;28;45386;-69
2023/01/10 15:25:59;;;;;;;;;79.25;71.75;;;;;26.24;36.39;101349.31;5054563;28;45435;-71
2023/01/10 15:28:28;;;;;;;;;78.25;65.00;;;;;26.28;36.87;101340.66;5056165;28;45650;-71
2023/01/10 15:30:54;;;;;;;;;74.75;64.75;;;;;26.28;36.64;101348.81;5046055;28;45381;-71
2023/01/10 15:33:31;;;;;;;;;82.25;70.00;;;;;26.32;37.15;101346.59;5055291;28;45476;-69
2023/01/10 15:36:04;;;;;;;;;80.75;69.00;;;;;26.31;36.28;101332.16;5054906;28;45496;-69
2023/01/10 15:38:33;;;;;;;;;79.75;68.00;;;;;26.31;36.97;101337.59;5038710;28;46159;-69
2023/01/10 15:41:05;;;;;;;;;77.00;66.00;;;;;26.33;36.75;101347.44;5055456;28;45444;-69
2023/01/10 15:43:32;;;;;;;;;77.50;67.75;;;;;26.31;37.10;101353.06;5056212;28;45439;-69
2023/01/10 15:46:00;;;;;;;;;76.50;63.75;;;;;26.30;36.78;101343.19;5048920;28;45543;-69
2023/01/10 15:48:33;;;;;;;;;74.50;66.75;;;;;26.36;36.75;101353.38;5054912;28;46461;-68
2023/01/10 15:51:05;;;;;;;;;72.50;61.50;;;;;26.39;37.22;101353.06;5049109;28;45555;-69
2023/01/10 15:54:03;;;;;;;;;75.25;59.75;;;;;26.41;37.27;101348.28;5048557;28;45531;-70
2023/01/10 15:56:33;;;;;;;;;73.50;59.75;;;;;26.42;37.20;101332.81;5045304;28;45605;-70
2023/01/10 15:59:00;;;;;;;;;68.75;54.50;;;;;26.46;36.91;101333.31;5047117;28;46685;-73
2023/01/10 16:01:26;;;;;;;;;70.25;54.50;;;;;26.47;36.78;101332.25;5053618;28;45510;-71
2023/01/10 16:03:55;;;;;;;;;73.75;54.00;;;;;26.48;37.15;101332.09;5054666;28;45437;-72
2023/01/10 16:06:33;;;;;;;;;65.25;50.75;;;;;26.52;37.27;101322.56;5065928;28;45373;-73
2023/01/10 16:09:03;;;;;;;;;65.00;50.50;;;;;26.50;36.61;101321.03;5052204;28;46280;-72
2023/01/10 16:14:24;;;;;;;;;54.00;43.00;;;;;26.41;36.34;101329.22;5046507;28;45390;-75
2023/01/10 16:16:50;;;;;;;;;56.75;44.75;;;;;26.41;36.52;101326.50;5056305;28;45850;-75
2023/01/10 16:19:15;;;;;;;;;35.00;30.50;;;;;26.41;36.44;101323.78;5055554;28;46023;-73
2023/01/10 16:21:47;;;;;;;;;32.25;29.00;;;;;26.39;36.81;101320.41;5051011;28;45566;-74
2023/01/10 16:24:33;;;;;;;;;36.25;31.00;;;;;26.36;36.42;101309.03;5040174;28;45811;-76
2023/01/10 16:27:04;;;;;;;;;32.75;29.00;;;;;26.33;36.83;101307.50;5062549;28;45757;-74
2023/01/10 16:29:30;;;;;;;;;39.75;31.50;;;;;26.37;36.47;101324.31;5055148;28;47274;-75
2023/01/10 16:31:55;;;;;;;;;32.75;30.25;;;;;26.34;36.49;101313.75;5047639;28;46067;-74
2023/01/10 16:34:22;;;;;;;;;33.00;30.25;;;;;26.30;36.86;101305.09;5054184;28;45426;-74
2023/01/10 16:36:47;;;;;;;;;36.75;31.75;;;;;26.26;36.77;101310.06;5050059;28;45445;-74
2023/01/10 16:39:19;;;;;;;;;35.50;31.25;;;;;26.24;36.59;101300.34;5044225;28;45555;-74
2023/01/10 16:44:29;;;;;;;;;34.00;30.50;;;;;26.25;37.01;101307.50;5053228;28;45348;-78
2023/01/10 16:46:55;;;;;;;;;26.00;23.00;;;;;26.25;36.52;101302.06;5056017;28;45419;-75
2023/01/10 16:49:20;;;;;;;;;30.00;27.00;;;;;26.28;36.29;101304.44;5053926;28;46032;-73
2023/01/10 16:51:46;;;;;;;;;28.00;24.75;;;;;26.18;36.52;101294.56;5047719;28;45456;-73
2023/01/10 16:54:16;;;;;;;;;14.67;14.67;;;;;26.24;36.70;101303.06;5049450;28;46645;-73
2023/01/10 16:56:43;;;;;;;;;15.33;13.00;;;;;26.18;36.53;101299.16;5051588;28;45474;-74
2023/01/10 16:59:09;;;;;;;;;16.33;15.00;;;;;26.07;36.27;101284.03;5052288;28;47102;-75
2023/01/10 17:01:39;;;;;;;;;17.67;16.67;;;;;25.99;35.90;101271.31;5055005;28;45690;-74
2023/01/10 17:04:06;;;;;;;;;20.00;16.33;;;;;25.92;36.17;101265.69;5065851;28;45401;-74
2023/01/10 17:06:31;;;;;;;;;14.67;14.67;;;;;25.81;35.73;101266.06;5055458;28;45412;-74
2023/01/10 17:08:57;;;;;;;;;18.67;17.00;;;;;25.76;36.22;101279.31;5055097;28;46485;-72
2023/01/10 17:11:28;;;;;;;;;15.00;13.67;;;;;25.68;36.44;101282.91;5051784;28;45380;-70
2023/01/10 17:13:53;;;;;;;;;19.67;15.00;;;;;25.62;36.26;101278.13;5048304;28;45371;-71
2023/01/10 17:16:19;;;;;;;;;13.33;10.67;;;;;25.55;35.96;101267.09;5052862;28;45742;-73
2023/01/10 17:18:44;;;;;;;;;29.00;25.00;;;;;25.52;36.53;101273.69;5042908;28;45797;-70
2023/01/10 17:21:20;;;;;;;;;20.75;17.50;;;;;25.48;36.41;101280.50;5055773;28;45479;-71
2023/01/10 17:23:46;;;;;;;;;20.00;20.00;;;;;25.47;36.73;101284.19;5038571;28;45503;-71
2023/01/10 17:26:14;;;;;;;;;23.00;18.67;;;;;25.44;36.06;101290.00;5049753;28;45522;-72
2023/01/10 17:28:40;;;;;;;;;20.67;19.33;;;;;25.41;36.13;101284.88;5046655;28;47087;-70
2023/01/10 17:31:06;;;;;;;;;18.67;14.33;;;;;25.37;36.03;101276.22;5053574;28;45587;-71
2023/01/10 17:33:32;;;;;;;;;15.33;15.33;;;;;25.37;36.52;101278.94;5049661;28;45383;-72
2023/01/10 17:35:58;;;;;;;;;15.67;15.33;;;;;25.34;36.63;101264.84;5041490;28;45552;-71
2023/01/10 17:38:25;;;;;;;;;15.67;13.33;;;;;25.29;36.81;101256.34;5052457;28;45392;-73
2023/01/10 17:40:51;;;;;;;;;14.67;13.00;;;;;25.31;37.05;101255.16;5049479;28;45456;-70
2023/01/10 17:43:18;;;;;;;;;13.00;12.33;;;;;25.30;36.50;101250.72;5050981;28;45618;-72
2023/01/10 17:45:45;;;;;;;;;12.33;12.33;;;;;25.30;36.48;101253.44;5041049;28;45344;-71
2023/01/10 17:48:14;;;;;;;;;14.33;12.00;;;;;25.29;36.72;101257.19;5044934;28;45497;-72
2023/01/10 17:50:43;;;;;;;;;14.33;13.67;;;;;25.28;36.59;101241.91;5054204;28;45375;-73
2023/01/10 17:53:09;;;;;;;;;12.00;10.00;;;;;25.29;36.64;101242.78;5042012;28;45677;-72
2023/01/10 17:55:34;;;;;;;;;14.00;13.00;;;;;25.28;36.34;101236.47;5052529;28;45526;-73
2023/01/10 17:58:01;;;;;;;;;13.00;11.33;;;;;25.28;36.69;101236.47;5053233;28;45497;-71
2023/01/10 18:00:27;;;;;;;;;13.00;12.67;;;;;25.26;36.51;101216.78;5048914;28;45366;-70
2023/01/10 18:02:52;;;;;;;;;13.67;11.67;;;;;25.29;36.64;101207.47;5054265;28;45375;-70
2023/01/10 18:05:18;;;;;;;;;14.00;11.33;;;;;25.24;36.33;101200.66;5039158;28;45861;-70
2023/01/10 18:07:43;;;;;;;;;15.67;11.00;;;;;25.29;37.13;101200.13;5041050;28;45546;-71
2023/01/10 18:10:09;;;;;;;;;12.00;11.00;;;;;25.34;36.97;101202.38;5054394;28;45411;-70
2023/01/10 18:12:35;;;;;;;;;10.00;9.67;;;;;25.34;37.13;101203.19;5053132;28;45569;-70
2023/01/10 18:15:00;;;;;;;;;11.33;10.67;;;;;25.33;36.59;101200.63;5050826;28;45603;-70
2023/01/10 18:17:26;;;;;;;;;10.67;10.33;;;;;25.41;36.83;101203.38;5045880;28;45606;-69
2023/01/10 18:19:51;;;;;;;;;12.33;11.00;;;;;25.37;36.67;101202.88;5040585;28;45706;-69
2023/01/10 18:25:01;;;;;;;;;8.00;8.00;;;;;25.42;36.59;101199.63;5050686;28;45434;-70
2023/01/10 18:27:26;;;;;;;;;10.67;9.67;;;;;25.46;36.70;101195.53;5042814;28;46345;-71
2023/01/10 18:29:52;;;;;;;;;9.00;7.00;;;;;25.48;36.90;101201.69;5047741;28;45725;-71
2023/01/10 18:32:20;;;;;;;;;13.00;10.33;;;;;25.47;36.67;101196.41;5048475;28;45464;-71
2023/01/10 18:34:48;;;;;;;;;10.33;10.00;;;;;25.48;36.95;101198.97;5044461;28;45482;-71
2023/01/10 18:37:15;;;;;;;;;12.00;10.67;;;;;25.51;36.64;101206.75;5053496;28;46349;-71